createdAt,value
2023-03-22T00:01:32.538Z,54.51
2023-03-22T00:04:01.461Z,54.41
2023-03-22T00:06:31.251Z,54.51
2023-03-22T00:09:06.792Z,54.41
2023-03-22T00:11:33.448Z,54.57
2023-03-22T00:14:02.343Z,54.75
2023-03-22T00:16:31.221Z,54.61
2023-03-22T00:19:02.657Z,54.56
2023-03-22T00:21:32.052Z,54.40
2023-03-22T00:24:03.331Z,54.75
2023-03-22T00:26:32.338Z,54.78
2023-03-22T00:29:02.052Z,54.74
2023-03-22T00:31:31.221Z,54.68
2023-03-22T00:33:59.434Z,54.75
2023-03-22T00:36:26.053Z,54.82
2023-03-22T00:38:58.649Z,55.14
2023-03-22T00:41:27.708Z,55.19
2023-03-22T00:43:58.091Z,54.89
2023-03-22T00:46:26.926Z,55.20
2023-03-22T00:48:56.039Z,55.19
2023-03-22T00:51:24.580Z,55.04
2023-03-22T00:53:56.702Z,55.20
2023-03-22T00:56:25.620Z,55.38
2023-03-22T00:58:55.827Z,55.43
2023-03-22T01:01:25.621Z,55.26
2023-03-22T01:03:52.363Z,55.09
2023-03-22T01:06:20.099Z,55.46
2023-03-22T01:08:51.356Z,55.39
2023-03-22T01:11:23.361Z,55.39
2023-03-22T01:13:50.084Z,55.47
2023-03-22T01:16:16.972Z,55.22
2023-03-22T01:18:46.023Z,55.70
2023-03-22T01:21:23.761Z,55.78
2023-03-22T01:23:58.196Z,55.47
2023-03-22T01:26:24.886Z,55.31
2023-03-22T01:28:53.329Z,55.49
2023-03-22T01:31:22.476Z,55.60
2023-03-22T01:33:49.163Z,55.79
2023-03-22T01:36:20.351Z,55.76
2023-03-22T01:38:52.183Z,55.63
2023-03-22T01:41:21.239Z,55.88
2023-03-22T01:44:12.730Z,55.63
2023-03-22T01:46:42.206Z,56.13
2023-03-22T01:49:17.088Z,55.95
2023-03-22T01:51:48.946Z,55.79
2023-03-22T01:54:42.890Z,55.80
2023-03-22T01:57:09.647Z,56.31
2023-03-22T01:59:36.636Z,56.18
2023-03-22T02:02:06.692Z,56.30
2023-03-22T02:04:36.835Z,56.09
2023-03-22T02:07:10.433Z,56.33
2023-03-22T02:09:42.443Z,56.60
2023-03-22T02:12:37.640Z,56.63
2023-03-22T02:15:13.142Z,56.84
2023-03-22T02:17:59.797Z,56.55
2023-03-22T02:21:02.505Z,56.75
2023-03-22T02:23:49.712Z,56.42
2023-03-22T02:26:54.524Z,56.46
2023-03-22T02:29:45.129Z,57.03
2023-03-22T02:32:33.743Z,56.75
2023-03-22T02:35:13.223Z,56.86
2023-03-22T02:38:10.332Z,56.83
2023-03-22T02:41:01.647Z,56.76
2023-03-22T02:44:07.158Z,56.75
2023-03-22T02:46:42.369Z,57.34
2023-03-22T02:49:30.710Z,56.86
2023-03-22T02:52:07.619Z,56.73
2023-03-22T02:55:01.620Z,56.67
2023-03-22T02:57:53.585Z,56.51
2023-03-22T03:00:22.477Z,56.85
2023-03-22T03:02:59.413Z,56.73
2023-03-22T03:05:26.084Z,56.68
2023-03-22T03:07:59.521Z,56.77
2023-03-22T03:10:26.346Z,56.61
2023-03-22T03:12:55.156Z,56.85
2023-03-22T03:15:26.478Z,56.55
2023-03-22T03:18:08.545Z,56.74
2023-03-22T03:20:44.289Z,56.35
2023-03-22T03:23:28.392Z,56.41
2023-03-22T03:26:03.107Z,56.49
2023-03-22T03:28:39.748Z,56.63
2023-03-22T03:31:09.332Z,56.72
2023-03-22T03:33:49.797Z,56.54
2023-03-22T03:36:24.708Z,56.62
2023-03-22T03:38:53.752Z,56.77
2023-03-22T03:41:30.764Z,56.60
2023-03-22T03:43:59.670Z,56.54
2023-03-22T03:46:29.138Z,56.42
2023-03-22T03:48:59.105Z,56.54
2023-03-22T03:51:26.633Z,56.41
2023-03-22T03:53:55.663Z,56.51
2023-03-22T03:56:27.838Z,56.58
2023-03-22T03:58:59.193Z,56.48
2023-03-22T04:01:26.513Z,56.59
2023-03-22T04:03:55.565Z,56.42
2023-03-22T04:06:27.354Z,56.70
2023-03-22T04:08:58.091Z,56.48
2023-03-22T04:11:24.963Z,56.70
2023-03-22T04:13:56.278Z,56.74
2023-03-22T04:16:27.776Z,56.73
2023-03-22T04:18:59.968Z,56.48
2023-03-22T04:21:28.950Z,56.61
2023-03-22T04:23:55.803Z,56.93
2023-03-22T04:26:26.218Z,56.70
2023-03-22T04:28:56.732Z,56.91
2023-03-22T04:31:26.534Z,57.13
2023-03-22T04:33:58.322Z,56.85
2023-03-22T04:36:32.675Z,56.87
2023-03-22T04:39:02.778Z,57.04
2023-03-22T04:41:33.905Z,57.04
2023-03-22T04:44:03.554Z,57.04
2023-03-22T04:46:37.160Z,56.90
2023-03-22T04:49:08.910Z,56.98
2023-03-22T04:51:41.733Z,57.21
2023-03-22T04:54:09.578Z,57.11
2023-03-22T04:56:37.302Z,57.10
2023-03-22T04:59:03.904Z,57.12
2023-03-22T05:01:35.439Z,56.89
2023-03-22T05:04:04.310Z,57.00
2023-03-22T05:06:33.735Z,57.06
2023-03-22T05:09:01.049Z,56.96
2023-03-22T05:11:28.189Z,56.97
2023-03-22T05:13:55.450Z,56.76
2023-03-22T05:16:27.318Z,57.04
2023-03-22T05:18:54.500Z,56.83
2023-03-22T05:21:28.467Z,56.76
2023-03-22T05:24:01.778Z,56.65
2023-03-22T05:26:28.457Z,56.93
2023-03-22T05:28:58.299Z,56.83
2023-03-22T05:31:28.617Z,56.74
2023-03-22T05:33:55.388Z,56.83
2023-03-22T05:36:30.878Z,56.98
2023-03-22T05:39:02.810Z,56.82
2023-03-22T05:41:31.905Z,56.84
2023-03-22T05:43:58.715Z,57.09
2023-03-22T05:46:25.789Z,56.72
2023-03-22T05:48:56.614Z,57.05
2023-03-22T05:51:25.667Z,56.91
2023-03-22T05:53:54.713Z,57.04
2023-03-22T05:56:26.175Z,56.90
2023-03-22T05:58:56.082Z,56.92
2023-03-22T06:01:26.046Z,57.00
2023-03-22T06:03:55.519Z,57.12
2023-03-22T06:06:26.857Z,57.12
2023-03-22T06:09:04.307Z,56.91
2023-03-22T06:11:44.606Z,57.00
2023-03-22T06:14:14.165Z,57.01
2023-03-22T06:16:45.561Z,56.88
2023-03-22T06:19:14.479Z,56.77
2023-03-22T06:21:46.397Z,56.77
2023-03-22T06:24:15.181Z,56.90
2023-03-22T06:26:44.953Z,56.91
2023-03-22T06:29:13.963Z,56.75
2023-03-22T06:31:42.803Z,56.85
2023-03-22T06:34:12.197Z,56.90
2023-03-22T06:36:40.954Z,56.85
2023-03-22T06:39:08.018Z,56.80
2023-03-22T06:41:34.728Z,56.76
2023-03-22T06:44:03.573Z,56.77
2023-03-22T06:46:32.704Z,47.78
2023-03-22T06:49:06.823Z,47.59
2023-03-22T06:51:36.651Z,46.87
2023-03-22T06:56:44.728Z,47.71
2023-03-22T07:15:24.832Z,49.80
2023-03-22T07:17:54.878Z,50.17
2023-03-22T07:23:04.194Z,51.59
2023-03-22T07:34:24.976Z,52.56
2023-03-22T07:36:56.846Z,53.79
2023-03-22T07:39:29.331Z,54.55
2023-03-22T07:41:57.340Z,53.77
2023-03-22T07:44:29.289Z,54.51
2023-03-22T07:46:56.619Z,54.10
2023-03-22T07:49:27.239Z,54.45
2023-03-22T07:51:59.532Z,54.28
2023-03-22T07:54:34.218Z,53.78
2023-03-22T07:57:01.330Z,53.67
2023-03-22T07:59:28.024Z,53.27
2023-03-22T08:01:57.377Z,53.08
2023-03-22T08:04:26.227Z,53.07
2023-03-22T08:09:33.556Z,52.95
2023-03-22T08:12:05.523Z,52.72
2023-03-22T08:14:36.763Z,52.64
2023-03-22T08:17:09.895Z,52.54
2023-03-22T08:19:40.528Z,52.60
2023-03-22T08:22:09.442Z,52.42
2023-03-22T08:24:36.148Z,52.46
2023-03-22T08:27:05.206Z,52.62
2023-03-22T08:29:44.030Z,53.01
2023-03-22T08:32:13.226Z,52.79
2023-03-22T08:34:46.121Z,52.98
2023-03-22T08:37:32.767Z,53.21
2023-03-22T08:40:03.448Z,53.14
2023-03-22T08:45:11.113Z,52.99
2023-03-22T08:47:37.820Z,53.16
2023-03-22T08:50:07.210Z,53.12
2023-03-22T08:52:34.043Z,53.10
2023-03-22T08:55:03.443Z,52.79
2023-03-22T08:57:34.230Z,52.85
2023-03-22T09:00:12.147Z,52.95
2023-03-22T09:05:19.376Z,52.72
2023-03-22T09:07:46.811Z,52.64
2023-03-22T09:23:26.635Z,52.34
2023-03-22T09:25:55.779Z,52.31
2023-03-22T09:28:25.261Z,52.25
2023-03-22T09:30:55.119Z,52.27
2023-03-22T09:33:24.058Z,52.18
2023-03-22T09:35:50.776Z,51.87
2023-03-22T09:38:22.670Z,51.86
2023-03-22T09:41:00.612Z,51.96
2023-03-22T09:43:30.612Z,51.96
2023-03-22T09:46:03.694Z,51.63
2023-03-22T09:48:36.046Z,51.73
2023-03-22T09:51:03.629Z,51.91
2023-03-22T09:53:30.538Z,51.48
2023-03-22T09:56:02.666Z,51.48
2023-03-22T09:58:44.518Z,51.25
2023-03-22T10:01:35.215Z,51.21
2023-03-22T10:04:39.995Z,50.96
2023-03-22T10:07:12.193Z,50.90
2023-03-22T10:10:01.090Z,50.82
2023-03-22T10:12:36.021Z,50.89
2023-03-22T10:15:27.134Z,50.71
2023-03-22T10:17:54.941Z,50.81
2023-03-22T10:20:30.259Z,50.74
2023-03-22T10:22:56.929Z,50.63
2023-03-22T10:25:29.803Z,50.58
2023-03-22T10:28:01.117Z,50.90
2023-03-22T10:30:43.357Z,51.00
2023-03-22T10:33:14.853Z,51.13
2023-03-22T10:35:41.563Z,51.17
2023-03-22T10:38:13.380Z,51.13
2023-03-22T10:40:44.667Z,51.28
2023-03-22T10:43:23.972Z,51.06
2023-03-22T10:45:52.328Z,51.17
2023-03-22T10:48:32.304Z,51.14
2023-03-22T10:51:01.513Z,51.07
2023-03-22T10:53:34.836Z,51.25
2023-03-22T10:56:06.443Z,51.09
2023-03-22T10:58:38.355Z,51.10
2023-03-22T11:01:09.696Z,51.11
2023-03-22T11:03:36.496Z,51.16
2023-03-22T11:06:06.759Z,51.34
2023-03-22T11:08:39.538Z,51.31
2023-03-22T11:11:09.913Z,51.00
2023-03-22T11:13:36.693Z,51.21
2023-03-22T11:16:08.022Z,51.14
2023-03-22T11:18:37.583Z,51.20
2023-03-22T11:21:05.862Z,51.19
2023-03-22T11:23:38.702Z,51.16
2023-03-22T11:26:10.631Z,51.00
2023-03-22T11:28:48.392Z,51.22
2023-03-22T11:31:22.316Z,51.00
2023-03-22T11:33:55.467Z,51.05
2023-03-22T11:36:28.252Z,50.97
2023-03-22T11:39:06.310Z,51.00
2023-03-22T11:41:39.547Z,50.87
2023-03-22T11:44:27.405Z,51.04
2023-03-22T11:47:00.326Z,50.97
2023-03-22T11:49:48.097Z,50.95
2023-03-22T11:52:21.413Z,50.97
2023-03-22T11:54:50.410Z,51.02
2023-03-22T11:57:22.775Z,51.01
2023-03-22T11:59:57.817Z,51.09
2023-03-22T12:02:34.537Z,51.09
2023-03-22T12:05:09.453Z,50.89
2023-03-22T12:07:36.096Z,50.98
2023-03-22T12:10:03.366Z,51.09
2023-03-22T12:12:33.426Z,51.00
2023-03-22T12:15:05.798Z,50.71
2023-03-22T12:17:34.968Z,50.67
2023-03-22T12:20:23.589Z,50.96
2023-03-22T12:22:54.429Z,45.38
2023-03-22T12:25:29.813Z,44.65
2023-03-22T12:28:04.225Z,44.77
2023-03-22T12:30:34.180Z,46.23
2023-03-22T12:33:06.732Z,48.42
2023-03-22T12:35:40.038Z,49.48
2023-03-22T12:38:16.926Z,49.70
2023-03-22T12:40:45.668Z,50.09
2023-03-22T12:43:24.210Z,50.19
2023-03-22T12:45:55.418Z,50.29
2023-03-22T12:48:26.265Z,49.95
2023-03-22T12:51:04.306Z,50.05
2023-03-22T12:53:59.838Z,50.02
2023-03-22T12:56:37.341Z,50.15
2023-03-22T12:59:33.772Z,49.79
2023-03-22T13:02:23.134Z,49.81
2023-03-22T13:04:56.034Z,49.85
2023-03-22T13:07:31.849Z,49.84
2023-03-22T13:09:59.358Z,49.81
2023-03-22T13:12:28.003Z,49.63
2023-03-22T13:15:42.201Z,49.70
2023-03-22T13:18:33.466Z,49.67
2023-03-22T13:21:21.320Z,49.95
2023-03-22T13:24:04.689Z,49.81
2023-03-22T13:26:45.656Z,44.54
2023-03-22T13:29:22.306Z,46.74
2023-03-22T13:31:52.046Z,48.44
2023-03-22T13:34:20.303Z,48.91
2023-03-22T13:36:55.155Z,49.06
2023-03-22T13:39:25.075Z,49.08
2023-03-22T13:42:17.478Z,49.03
2023-03-22T13:44:46.111Z,49.29
2023-03-22T13:47:34.119Z,49.33
2023-03-22T13:50:19.173Z,49.50
2023-03-22T13:52:57.422Z,49.37
2023-03-22T13:55:51.936Z,49.30
2023-03-22T13:58:36.155Z,49.34
2023-03-22T14:01:11.055Z,49.09
2023-03-22T14:03:39.087Z,49.29
2023-03-22T14:06:09.589Z,49.30
2023-03-22T14:08:41.427Z,49.06
2023-03-22T14:11:17.649Z,49.14
2023-03-22T14:13:47.219Z,48.94
2023-03-22T14:16:21.971Z,48.79
2023-03-22T14:18:51.851Z,48.66
2023-03-22T14:21:21.519Z,48.83
